sensor_id;sensor_type;location;lat;lon;timestamp;temperature;humidity
51567;DHT22;37657;53.182;5.638;2022-11-30T14:33:57;19.60;99.90
51567;DHT22;37657;53.182;5.638;2022-11-30T14:36:31;19.70;99.90
51567;DHT22;37657;53.182;5.638;2022-11-30T14:41:05;19.40;99.90
51567;DHT22;37657;53.182;5.638;2022-11-30T14:45:37;19.50;99.90
51567;DHT22;37657;53.182;5.638;2022-11-30T14:48:13;19.40;99.90
51567;DHT22;37657;53.182;5.638;2022-11-30T14:50:59;19.30;99.90
51567;DHT22;37657;53.182;5.638;2022-11-30T14:53:35;19.20;99.90
51567;DHT22;37657;53.182;5.638;2022-11-30T14:56:26;19.10;99.90
51567;DHT22;37657;53.182;5.638;2022-11-30T15:01:38;19.00;99.90
51567;DHT22;37657;53.182;5.638;2022-11-30T15:04:10;18.90;99.90
51567;DHT22;37657;53.182;5.638;2022-11-30T15:17:28;15.20;99.90
51567;DHT22;37657;53.182;5.638;2022-11-30T15:19:54;14.20;99.90
51567;DHT22;37657;53.182;5.638;2022-11-30T15:22:21;13.10;99.90
51567;DHT22;37657;53.182;5.638;2022-11-30T15:24:47;11.90;99.90
51567;DHT22;37657;53.182;5.638;2022-11-30T15:27:16;10.80;99.90
51567;DHT22;37657;53.182;5.638;2022-11-30T15:29:48;10.10;99.90
51567;DHT22;37657;53.182;5.638;2022-11-30T15:32:17;9.40;99.90
51567;DHT22;37657;53.182;5.638;2022-11-30T15:34:47;9.00;99.90
51567;DHT22;37657;53.182;5.638;2022-11-30T15:37:13;8.60;99.90
51567;DHT22;37657;53.182;5.638;2022-11-30T15:39:47;8.40;99.90
51567;DHT22;37657;53.182;5.638;2022-11-30T15:42:32;8.10;99.90
51567;DHT22;37657;53.182;5.638;2022-11-30T15:45:29;7.90;99.90
51567;DHT22;37657;53.182;5.638;2022-11-30T15:48:00;7.80;99.90
51567;DHT22;37657;53.182;5.638;2022-11-30T15:52:58;7.60;99.90
51567;DHT22;37657;53.182;5.638;2022-11-30T15:55:44;7.40;99.90
51567;DHT22;37657;53.182;5.638;2022-11-30T15:58:41;7.30;99.90
51567;DHT22;37657;53.182;5.638;2022-11-30T16:01:20;7.40;99.90
51567;DHT22;37657;53.182;5.638;2022-11-30T16:04:01;7.40;99.90
51567;DHT22;37657;53.182;5.638;2022-11-30T16:06:33;7.20;99.90
51567;DHT22;37657;53.182;5.638;2022-11-30T16:09:14;7.40;99.90
51567;DHT22;37657;53.182;5.638;2022-11-30T16:11:42;7.20;99.90
51567;DHT22;37657;53.182;5.638;2022-11-30T16:14:12;7.30;99.90
51567;DHT22;37657;53.182;5.638;2022-11-30T16:16:40;7.20;99.90
51567;DHT22;37657;53.182;5.638;2022-11-30T16:19:06;7.20;99.90
51567;DHT22;37657;53.182;5.638;2022-11-30T16:21:32;7.20;99.90
51567;DHT22;37657;53.182;5.638;2022-11-30T16:23:57;7.00;99.90
51567;DHT22;37657;53.182;5.638;2022-11-30T16:26:23;7.20;99.90
51567;DHT22;37657;53.182;5.638;2022-11-30T16:28:49;7.20;99.90
51567;DHT22;37657;53.182;5.638;2022-11-30T16:31:17;7.10;99.90
51567;DHT22;37657;53.182;5.638;2022-11-30T16:33:43;7.00;99.90
51567;DHT22;37657;53.182;5.638;2022-11-30T16:36:22;7.00;99.90
51567;DHT22;37657;53.182;5.638;2022-11-30T16:38:49;7.00;99.90
51567;DHT22;37657;53.182;5.638;2022-11-30T16:41:20;7.10;99.90
51567;DHT22;37657;53.182;5.638;2022-11-30T16:43:48;7.00;99.90
51567;DHT22;37657;53.182;5.638;2022-11-30T16:46:23;6.90;99.90
51567;DHT22;37657;53.182;5.638;2022-11-30T16:48:49;7.00;99.90
51567;DHT22;37657;53.182;5.638;2022-11-30T16:51:21;7.10;99.90
51567;DHT22;37657;53.182;5.638;2022-11-30T16:53:48;7.10;99.90
51567;DHT22;37657;53.182;5.638;2022-11-30T16:56:14;7.10;99.90
51567;DHT22;37657;53.182;5.638;2022-11-30T16:58:40;7.30;99.90
51567;DHT22;37657;53.182;5.638;2022-11-30T17:01:14;7.20;99.90
51567;DHT22;37657;53.182;5.638;2022-11-30T17:03:40;7.10;99.90
51567;DHT22;37657;53.182;5.638;2022-11-30T17:06:14;6.90;99.90
51567;DHT22;37657;53.182;5.638;2022-11-30T17:08:40;7.00;99.90
51567;DHT22;37657;53.182;5.638;2022-11-30T17:11:15;6.80;99.90
51567;DHT22;37657;53.182;5.638;2022-11-30T17:13:42;6.80;99.90
51567;DHT22;37657;53.182;5.638;2022-11-30T17:16:08;6.90;99.90
51567;DHT22;37657;53.182;5.638;2022-11-30T17:18:34;6.70;99.90
51567;DHT22;37657;53.182;5.638;2022-11-30T17:21:00;6.80;99.90
51567;DHT22;37657;53.182;5.638;2022-11-30T17:23:25;7.00;99.90
51567;DHT22;37657;53.182;5.638;2022-11-30T17:25:51;6.90;99.90
51567;DHT22;37657;53.182;5.638;2022-11-30T17:28:16;7.00;99.90
51567;DHT22;37657;53.182;5.638;2022-11-30T17:30:42;6.90;99.90
51567;DHT22;37657;53.182;5.638;2022-11-30T17:33:07;6.90;99.90
51567;DHT22;37657;53.182;5.638;2022-11-30T17:35:33;7.00;99.90
51567;DHT22;37657;53.182;5.638;2022-11-30T17:38:01;6.90;99.90
51567;DHT22;37657;53.182;5.638;2022-11-30T17:40:27;6.90;99.90
51567;DHT22;37657;53.182;5.638;2022-11-30T17:42:52;7.00;99.90
51567;DHT22;37657;53.182;5.638;2022-11-30T17:45:18;6.90;99.90
51567;DHT22;37657;53.182;5.638;2022-11-30T17:47:43;6.90;99.90
51567;DHT22;37657;53.182;5.638;2022-11-30T17:50:09;6.80;99.90
51567;DHT22;37657;53.182;5.638;2022-11-30T17:52:35;6.90;99.90
51567;DHT22;37657;53.182;5.638;2022-11-30T17:55:00;6.80;99.90
51567;DHT22;37657;53.182;5.638;2022-11-30T17:57:26;6.80;99.90
51567;DHT22;37657;53.182;5.638;2022-11-30T17:59:52;6.90;99.90
51567;DHT22;37657;53.182;5.638;2022-11-30T18:02:17;6.90;99.90
51567;DHT22;37657;53.182;5.638;2022-11-30T18:04:43;7.00;99.90
51567;DHT22;37657;53.182;5.638;2022-11-30T18:07:08;6.90;99.90
51567;DHT22;37657;53.182;5.638;2022-11-30T18:09:34;7.00;99.90
51567;DHT22;37657;53.182;5.638;2022-11-30T18:11:59;6.80;99.90
51567;DHT22;37657;53.182;5.638;2022-11-30T18:14:25;6.80;99.90
51567;DHT22;37657;53.182;5.638;2022-11-30T18:16:50;6.90;99.90
51567;DHT22;37657;53.182;5.638;2022-11-30T18:19:17;7.00;99.90
51567;DHT22;37657;53.182;5.638;2022-11-30T18:21:43;7.00;99.90
51567;DHT22;37657;53.182;5.638;2022-11-30T18:24:12;6.90;99.90
51567;DHT22;37657;53.182;5.638;2022-11-30T18:26:38;7.00;99.90
51567;DHT22;37657;53.182;5.638;2022-11-30T18:29:04;7.00;99.90
51567;DHT22;37657;53.182;5.638;2022-11-30T18:31:30;7.20;99.90
51567;DHT22;37657;53.182;5.638;2022-11-30T18:33:58;7.00;99.90
51567;DHT22;37657;53.182;5.638;2022-11-30T18:36:24;7.20;99.90
51567;DHT22;37657;53.182;5.638;2022-11-30T18:38:49;7.10;99.90
51567;DHT22;37657;53.182;5.638;2022-11-30T18:41:15;7.00;99.90
51567;DHT22;37657;53.182;5.638;2022-11-30T18:43:40;6.90;99.90
51567;DHT22;37657;53.182;5.638;2022-11-30T18:46:09;6.70;99.90
51567;DHT22;37657;53.182;5.638;2022-11-30T18:48:35;6.80;99.90
51567;DHT22;37657;53.182;5.638;2022-11-30T18:51:12;6.80;99.90
51567;DHT22;37657;53.182;5.638;2022-11-30T18:53:38;6.70;99.90
51567;DHT22;37657;53.182;5.638;2022-11-30T18:56:15;6.80;99.90
51567;DHT22;37657;53.182;5.638;2022-11-30T18:58:41;6.80;99.90
51567;DHT22;37657;53.182;5.638;2022-11-30T19:01:16;6.90;99.90
51567;DHT22;37657;53.182;5.638;2022-11-30T19:03:42;6.70;99.90
51567;DHT22;37657;53.182;5.638;2022-11-30T19:06:08;6.60;99.90
51567;DHT22;37657;53.182;5.638;2022-11-30T19:08:35;6.70;99.90
51567;DHT22;37657;53.182;5.638;2022-11-30T19:11:03;6.80;99.90
51567;DHT22;37657;53.182;5.638;2022-11-30T19:13:29;6.80;99.90
51567;DHT22;37657;53.182;5.638;2022-11-30T19:15:54;6.60;99.90
51567;DHT22;37657;53.182;5.638;2022-11-30T19:18:20;7.00;99.90
51567;DHT22;37657;53.182;5.638;2022-11-30T19:20:45;6.60;99.90
51567;DHT22;37657;53.182;5.638;2022-11-30T19:23:11;6.70;99.90
51567;DHT22;37657;53.182;5.638;2022-11-30T19:25:37;6.80;99.90
51567;DHT22;37657;53.182;5.638;2022-11-30T19:28:02;6.60;99.90
51567;DHT22;37657;53.182;5.638;2022-11-30T19:30:28;6.50;99.90
51567;DHT22;37657;53.182;5.638;2022-11-30T19:32:53;6.70;99.90
51567;DHT22;37657;53.182;5.638;2022-11-30T19:35:19;6.60;99.90
51567;DHT22;37657;53.182;5.638;2022-11-30T19:37:47;6.50;99.90
51567;DHT22;37657;53.182;5.638;2022-11-30T19:40:12;6.50;99.90
51567;DHT22;37657;53.182;5.638;2022-11-30T19:42:38;6.60;99.90
51567;DHT22;37657;53.182;5.638;2022-11-30T19:45:04;6.80;99.90
51567;DHT22;37657;53.182;5.638;2022-11-30T19:47:30;6.80;99.90
51567;DHT22;37657;53.182;5.638;2022-11-30T19:49:55;6.70;99.90
51567;DHT22;37657;53.182;5.638;2022-11-30T19:52:21;6.60;99.90
51567;DHT22;37657;53.182;5.638;2022-11-30T19:54:46;6.60;99.90
51567;DHT22;37657;53.182;5.638;2022-11-30T19:57:12;6.60;99.90
51567;DHT22;37657;53.182;5.638;2022-11-30T19:59:38;6.40;99.90
51567;DHT22;37657;53.182;5.638;2022-11-30T20:02:03;6.40;99.90
51567;DHT22;37657;53.182;5.638;2022-11-30T20:04:29;6.60;99.90
51567;DHT22;37657;53.182;5.638;2022-11-30T20:06:54;6.70;99.90
51567;DHT22;37657;53.182;5.638;2022-11-30T20:09:20;6.60;99.90
51567;DHT22;37657;53.182;5.638;2022-11-30T20:11:45;6.70;99.90
51567;DHT22;37657;53.182;5.638;2022-11-30T20:14:15;6.50;99.90
51567;DHT22;37657;53.182;5.638;2022-11-30T20:16:41;6.50;99.90
51567;DHT22;37657;53.182;5.638;2022-11-30T20:19:07;6.70;99.90
51567;DHT22;37657;53.182;5.638;2022-11-30T20:21:34;6.60;99.90
51567;DHT22;37657;53.182;5.638;2022-11-30T20:24:03;6.70;99.90
51567;DHT22;37657;53.182;5.638;2022-11-30T20:26:34;6.50;99.90
51567;DHT22;37657;53.182;5.638;2022-11-30T20:29:02;6.40;99.90
51567;DHT22;37657;53.182;5.638;2022-11-30T20:31:30;6.50;99.90
51567;DHT22;37657;53.182;5.638;2022-11-30T20:33:56;6.50;99.90
51567;DHT22;37657;53.182;5.638;2022-11-30T20:36:22;6.50;99.90
51567;DHT22;37657;53.182;5.638;2022-11-30T20:38:48;6.80;99.90
51567;DHT22;37657;53.182;5.638;2022-11-30T20:41:16;6.60;99.90
51567;DHT22;37657;53.182;5.638;2022-11-30T20:43:42;6.70;99.90
51567;DHT22;37657;53.182;5.638;2022-11-30T20:48:41;6.60;99.90
51567;DHT22;37657;53.182;5.638;2022-11-30T20:51:20;6.60;99.90
51567;DHT22;37657;53.182;5.638;2022-11-30T20:53:46;6.80;99.90
51567;DHT22;37657;53.182;5.638;2022-11-30T20:56:12;6.60;99.90
51567;DHT22;37657;53.182;5.638;2022-11-30T20:58:38;6.80;99.90
51567;DHT22;37657;53.182;5.638;2022-11-30T21:01:22;6.80;99.90
51567;DHT22;37657;53.182;5.638;2022-11-30T21:03:48;6.80;99.90
51567;DHT22;37657;53.182;5.638;2022-11-30T21:06:14;6.90;99.90
51567;DHT22;37657;53.182;5.638;2022-11-30T21:08:41;6.70;99.90
51567;DHT22;37657;53.182;5.638;2022-11-30T21:11:18;6.60;99.90
51567;DHT22;37657;53.182;5.638;2022-11-30T21:13:46;6.80;99.90
51567;DHT22;37657;53.182;5.638;2022-11-30T21:16:13;6.80;99.90
51567;DHT22;37657;53.182;5.638;2022-11-30T21:18:41;6.80;99.90
51567;DHT22;37657;53.182;5.638;2022-11-30T21:21:11;6.90;99.90
51567;DHT22;37657;53.182;5.638;2022-11-30T21:23:37;6.80;99.90
51567;DHT22;37657;53.182;5.638;2022-11-30T21:26:04;6.70;99.90
51567;DHT22;37657;53.182;5.638;2022-11-30T21:28:30;6.60;99.90
51567;DHT22;37657;53.182;5.638;2022-11-30T21:30:56;6.70;99.90
51567;DHT22;37657;53.182;5.638;2022-11-30T21:33:22;6.60;99.90
51567;DHT22;37657;53.182;5.638;2022-11-30T21:35:47;6.60;99.90
51567;DHT22;37657;53.182;5.638;2022-11-30T21:38:13;6.80;99.90
51567;DHT22;37657;53.182;5.638;2022-11-30T21:40:38;6.60;99.90
51567;DHT22;37657;53.182;5.638;2022-11-30T21:43:04;6.70;99.90
51567;DHT22;37657;53.182;5.638;2022-11-30T21:45:29;6.70;99.90
51567;DHT22;37657;53.182;5.638;2022-11-30T21:47:55;6.70;99.90
51567;DHT22;37657;53.182;5.638;2022-11-30T21:50:21;6.60;99.90
51567;DHT22;37657;53.182;5.638;2022-11-30T21:52:46;6.50;99.90
51567;DHT22;37657;53.182;5.638;2022-11-30T21:55:12;6.40;99.90
51567;DHT22;37657;53.182;5.638;2022-11-30T21:57:37;6.50;99.90
51567;DHT22;37657;53.182;5.638;2022-11-30T22:00:03;6.40;99.90
51567;DHT22;37657;53.182;5.638;2022-11-30T22:02:29;6.70;99.90
51567;DHT22;37657;53.182;5.638;2022-11-30T22:04:54;6.60;99.90
51567;DHT22;37657;53.182;5.638;2022-11-30T22:07:20;6.60;99.90
51567;DHT22;37657;53.182;5.638;2022-11-30T22:09:56;6.70;99.90
51567;DHT22;37657;53.182;5.638;2022-11-30T22:12:22;6.70;99.90
51567;DHT22;37657;53.182;5.638;2022-11-30T22:14:48;6.60;99.90
51567;DHT22;37657;53.182;5.638;2022-11-30T22:17:13;6.70;99.90
51567;DHT22;37657;53.182;5.638;2022-11-30T22:19:39;6.50;99.90
51567;DHT22;37657;53.182;5.638;2022-11-30T22:22:04;6.60;99.90
51567;DHT22;37657;53.182;5.638;2022-11-30T22:24:30;6.50;99.90
51567;DHT22;37657;53.182;5.638;2022-11-30T22:26:56;6.60;99.90
51567;DHT22;37657;53.182;5.638;2022-11-30T22:29:22;6.70;99.90
51567;DHT22;37657;53.182;5.638;2022-11-30T22:31:50;6.40;99.90
51567;DHT22;37657;53.182;5.638;2022-11-30T22:34:16;6.60;99.90
51567;DHT22;37657;53.182;5.638;2022-11-30T22:36:43;6.40;99.90
51567;DHT22;37657;53.182;5.638;2022-11-30T22:39:11;6.30;99.90
51567;DHT22;37657;53.182;5.638;2022-11-30T22:41:38;6.60;99.90
51567;DHT22;37657;53.182;5.638;2022-11-30T22:44:04;6.50;99.90
51567;DHT22;37657;53.182;5.638;2022-11-30T22:46:32;6.40;99.90
51567;DHT22;37657;53.182;5.638;2022-11-30T22:48:59;6.50;99.90
51567;DHT22;37657;53.182;5.638;2022-11-30T22:51:26;6.60;99.90
51567;DHT22;37657;53.182;5.638;2022-11-30T22:53:53;6.40;99.90
51567;DHT22;37657;53.182;5.638;2022-11-30T22:56:21;6.50;99.90
51567;DHT22;37657;53.182;5.638;2022-11-30T22:58:48;6.50;99.90
51567;DHT22;37657;53.182;5.638;2022-11-30T23:01:16;6.70;99.90
51567;DHT22;37657;53.182;5.638;2022-11-30T23:03:43;6.50;99.90
51567;DHT22;37657;53.182;5.638;2022-11-30T23:06:10;6.70;99.90
51567;DHT22;37657;53.182;5.638;2022-11-30T23:08:36;6.50;99.90
51567;DHT22;37657;53.182;5.638;2022-11-30T23:11:08;6.50;99.90
51567;DHT22;37657;53.182;5.638;2022-11-30T23:13:34;6.40;99.90
51567;DHT22;37657;53.182;5.638;2022-11-30T23:16:00;6.60;99.90
51567;DHT22;37657;53.182;5.638;2022-11-30T23:18:27;6.50;99.90
51567;DHT22;37657;53.182;5.638;2022-11-30T23:20:54;6.40;99.90
51567;DHT22;37657;53.182;5.638;2022-11-30T23:23:21;6.60;99.90
51567;DHT22;37657;53.182;5.638;2022-11-30T23:25:47;6.60;99.90
51567;DHT22;37657;53.182;5.638;2022-11-30T23:28:13;6.50;99.90
51567;DHT22;37657;53.182;5.638;2022-11-30T23:30:39;6.60;99.90
51567;DHT22;37657;53.182;5.638;2022-11-30T23:33:04;6.60;99.90
51567;DHT22;37657;53.182;5.638;2022-11-30T23:35:30;6.40;99.90
51567;DHT22;37657;53.182;5.638;2022-11-30T23:37:56;6.40;99.90
51567;DHT22;37657;53.182;5.638;2022-11-30T23:40:22;6.30;99.90
51567;DHT22;37657;53.182;5.638;2022-11-30T23:42:47;6.30;99.90
51567;DHT22;37657;53.182;5.638;2022-11-30T23:45:13;6.60;99.90
51567;DHT22;37657;53.182;5.638;2022-11-30T23:47:38;6.40;99.90
51567;DHT22;37657;53.182;5.638;2022-11-30T23:50:04;6.60;99.90
51567;DHT22;37657;53.182;5.638;2022-11-30T23:52:30;6.50;99.90
51567;DHT22;37657;53.182;5.638;2022-11-30T23:54:56;6.60;99.90
51567;DHT22;37657;53.182;5.638;2022-11-30T23:57:21;6.40;99.90
51567;DHT22;37657;53.182;5.638;2022-11-30T23:59:47;6.40;99.90
